createdAt,value
2023-04-04T00:01:05.742Z,64.95
2023-04-04T00:04:09.309Z,64.71
2023-04-04T00:07:12.083Z,65.49
2023-04-04T00:10:18.308Z,64.33
2023-04-04T00:13:20.992Z,65.29
2023-04-04T00:16:23.718Z,64.59
2023-04-04T00:19:26.387Z,65.12
2023-04-04T00:22:29.190Z,65.04
2023-04-04T00:25:31.605Z,64.98
2023-04-04T00:28:34.735Z,64.95
2023-04-04T00:31:37.483Z,64.74
2023-04-04T00:34:40.562Z,64.96
2023-04-04T00:37:43.637Z,64.75
2023-04-04T00:40:51.998Z,64.40
2023-04-04T00:43:55.795Z,65.41
2023-04-04T00:46:58.678Z,65.59
2023-04-04T00:50:02.194Z,65.37
2023-04-04T00:53:05.271Z,65.85
2023-04-04T00:56:09.320Z,65.29
2023-04-04T00:59:12.497Z,65.44
2023-04-04T01:02:15.406Z,65.02
2023-04-04T01:05:18.675Z,65.17
2023-04-04T01:08:24.612Z,65.29
2023-04-04T01:11:28.582Z,65.61
2023-04-04T01:14:31.520Z,64.68
2023-04-04T01:17:35.052Z,65.08
2023-04-04T01:20:47.563Z,65.55
2023-04-04T01:24:01.816Z,64.85
2023-04-04T01:27:17.502Z,64.93
2023-04-04T01:30:32.854Z,64.73
2023-04-04T01:33:41.268Z,64.86
2023-04-04T01:36:58.270Z,65.33
2023-04-04T01:40:17.131Z,65.67
2023-04-04T01:43:22.645Z,65.13
2023-04-04T01:46:25.517Z,65.27
2023-04-04T01:49:29.083Z,65.15
2023-04-04T01:52:32.107Z,65.46
2023-04-04T01:55:35.520Z,65.59
2023-04-04T01:58:38.151Z,65.05
2023-04-04T02:01:41.143Z,65.17
2023-04-04T02:04:44.290Z,65.30
2023-04-04T02:07:49.672Z,65.33
2023-04-04T02:11:01.847Z,65.25
2023-04-04T02:14:05.587Z,64.85
2023-04-04T02:17:08.341Z,65.45
2023-04-04T02:20:11.551Z,65.29
2023-04-04T02:23:14.747Z,65.91
2023-04-04T02:26:17.492Z,65.78
2023-04-04T02:29:20.202Z,65.23
2023-04-04T02:32:23.988Z,65.15
2023-04-04T02:35:28.105Z,65.05
2023-04-04T02:38:31.945Z,64.66
2023-04-04T02:41:36.465Z,65.11
2023-04-04T02:44:39.363Z,64.69
2023-04-04T02:47:53.011Z,64.50
2023-04-04T02:51:00.848Z,64.61
2023-04-04T02:54:04.200Z,63.92
2023-04-04T02:57:13.826Z,63.97
2023-04-04T03:00:16.633Z,64.09
2023-04-04T03:03:19.537Z,63.84
2023-04-04T03:06:23.372Z,63.52
2023-04-04T03:09:26.576Z,63.71
2023-04-04T03:12:29.127Z,63.79
2023-04-04T03:15:33.485Z,63.29
2023-04-04T03:18:36.242Z,63.42
2023-04-04T03:21:39.151Z,63.05
2023-04-04T03:24:42.170Z,63.78
2023-04-04T03:27:45.190Z,63.47
2023-04-04T03:30:54.529Z,64.11
2023-04-04T03:34:01.064Z,64.04
2023-04-04T03:37:03.445Z,63.89
2023-04-04T03:40:07.148Z,63.84
2023-04-04T03:43:10.214Z,63.46
2023-04-04T03:46:13.234Z,63.73
2023-04-04T03:49:16.359Z,63.53
2023-04-04T03:52:19.257Z,63.57
2023-04-04T03:55:21.930Z,63.68
2023-04-04T03:58:24.974Z,64.44
2023-04-04T04:01:27.458Z,63.73
2023-04-04T04:04:30.687Z,63.62
2023-04-04T04:07:33.929Z,63.72
2023-04-04T04:10:37.610Z,64.08
2023-04-04T04:13:40.288Z,64.04
2023-04-04T04:16:43.763Z,64.65
2023-04-04T04:19:50.126Z,64.85
2023-04-04T04:22:54.058Z,64.92
2023-04-04T04:25:57.106Z,64.97
2023-04-04T04:29:01.717Z,64.08
2023-04-04T04:32:07.723Z,64.66
2023-04-04T04:35:15.984Z,64.37
2023-04-04T04:38:19.753Z,64.65
2023-04-04T04:41:23.232Z,64.22
2023-04-04T04:44:27.488Z,64.20
2023-04-04T04:47:32.897Z,64.65
2023-04-04T04:50:39.408Z,63.91
2023-04-04T04:53:44.632Z,64.32
2023-04-04T04:56:47.393Z,64.30
2023-04-04T04:59:50.094Z,63.76
2023-04-04T05:02:56.195Z,63.62
2023-04-04T05:06:08.866Z,62.97
2023-04-04T05:09:13.590Z,62.54
2023-04-04T05:12:18.282Z,62.32
2023-04-04T05:15:25.898Z,61.52
2023-04-04T05:18:28.609Z,60.86
2023-04-04T05:21:32.228Z,59.58
2023-04-04T05:24:36.381Z,58.84
2023-04-04T05:27:40.542Z,58.24
2023-04-04T05:30:43.417Z,57.42
2023-04-04T05:33:58.140Z,56.60
2023-04-04T05:37:08.136Z,55.57
2023-04-04T05:40:12.128Z,55.18
2023-04-04T05:43:14.758Z,54.51
2023-04-04T05:46:33.945Z,54.01
2023-04-04T05:49:36.649Z,53.60
2023-04-04T05:52:39.252Z,54.37
2023-04-04T05:55:46.614Z,54.26
2023-04-04T05:58:49.397Z,54.44
2023-04-04T06:01:55.062Z,54.28
2023-04-04T06:04:57.726Z,54.68
2023-04-04T06:08:18.939Z,54.28
2023-04-04T06:11:24.306Z,53.89
2023-04-04T06:14:29.629Z,52.75
2023-04-04T06:17:32.504Z,52.44
2023-04-04T06:20:35.613Z,52.50
2023-04-04T06:23:38.521Z,52.72
2023-04-04T06:26:42.812Z,51.66
2023-04-04T06:29:45.609Z,52.06
2023-04-04T06:32:53.127Z,51.51
2023-04-04T06:35:58.777Z,50.06
2023-04-04T06:39:01.812Z,49.67
2023-04-04T06:42:05.960Z,48.59
2023-04-04T06:45:10.885Z,48.52
2023-04-04T06:48:14.010Z,47.80
2023-04-04T06:51:16.522Z,47.00
2023-04-04T06:54:21.615Z,46.74
2023-04-04T06:57:24.088Z,46.90
2023-04-04T07:00:27.024Z,45.65
2023-04-04T07:03:29.578Z,45.51
2023-04-04T07:06:32.223Z,45.58
2023-04-04T07:09:34.790Z,45.24
2023-04-04T07:12:37.524Z,45.07
2023-04-04T07:15:40.603Z,44.59
2023-04-04T07:18:44.441Z,43.87
2023-04-04T07:21:47.091Z,43.17
2023-04-04T07:24:49.867Z,43.30
2023-04-04T07:28:02.357Z,43.08
2023-04-04T07:31:12.706Z,43.39
2023-04-04T07:34:15.304Z,43.68
2023-04-04T07:37:18.758Z,44.40
2023-04-04T07:40:21.720Z,43.34
2023-04-04T07:43:24.436Z,42.03
2023-04-04T07:46:27.970Z,42.86
2023-04-04T07:49:30.698Z,41.89
2023-04-04T07:52:33.568Z,42.01
2023-04-04T07:55:36.286Z,40.54
2023-04-04T07:58:39.066Z,41.39
2023-04-04T08:01:45.083Z,41.42
2023-04-04T08:04:48.812Z,42.22
2023-04-04T08:07:51.550Z,40.92
2023-04-04T08:10:54.062Z,39.45
2023-04-04T08:13:57.169Z,40.36
2023-04-04T08:16:59.821Z,39.94
2023-04-04T08:20:03.492Z,39.39
2023-04-04T08:23:06.308Z,39.49
2023-04-04T08:26:08.816Z,41.28
2023-04-04T08:29:11.332Z,40.29
2023-04-04T08:32:15.011Z,39.59
2023-04-04T08:35:17.641Z,38.87
2023-04-04T08:38:20.250Z,39.50
2023-04-04T08:41:22.927Z,41.62
2023-04-04T08:44:27.626Z,40.45
2023-04-04T08:47:33.070Z,41.09
2023-04-04T08:50:38.524Z,39.86
2023-04-04T08:53:41.365Z,39.18
2023-04-04T08:56:44.225Z,40.43
2023-04-04T08:59:48.376Z,42.30
2023-04-04T09:03:26.784Z,41.32
2023-04-04T09:06:29.754Z,38.58
2023-04-04T09:09:33.686Z,38.14
2023-04-04T09:12:39.506Z,35.91
2023-04-04T09:15:48.267Z,35.63
2023-04-04T09:18:52.896Z,38.77
2023-04-04T09:21:55.718Z,39.09
2023-04-04T09:24:58.274Z,38.60
2023-04-04T09:28:03.223Z,38.41
2023-04-04T09:31:08.302Z,36.83
2023-04-04T09:34:11.071Z,37.90
2023-04-04T09:37:16.842Z,36.67
2023-04-04T09:40:20.081Z,36.00
2023-04-04T09:43:26.214Z,35.62
2023-04-04T09:46:29.027Z,36.50
2023-04-04T09:49:32.848Z,36.01
2023-04-04T09:52:38.223Z,36.39
2023-04-04T09:55:41.239Z,36.43
2023-04-04T09:59:02.384Z,35.79
2023-04-04T10:02:09.930Z,35.70
2023-04-04T10:05:12.778Z,35.85
2023-04-04T10:08:21.480Z,37.09
2023-04-04T10:11:34.551Z,37.70
2023-04-04T10:14:37.590Z,37.74
2023-04-04T10:17:42.183Z,36.96
2023-04-04T10:20:46.469Z,36.98
2023-04-04T10:23:49.573Z,36.83
2023-04-04T10:26:53.463Z,37.52
2023-04-04T10:29:57.346Z,38.56
2023-04-04T10:33:12.756Z,37.58
2023-04-04T10:36:21.447Z,37.14
2023-04-04T10:39:52.060Z,37.15
2023-04-04T10:42:57.828Z,36.86
2023-04-04T10:46:12.224Z,36.67
2023-04-04T10:49:15.619Z,37.43
2023-04-04T10:52:22.989Z,36.62
2023-04-04T10:55:25.885Z,36.42
2023-04-04T10:58:29.475Z,35.86
2023-04-04T11:01:49.060Z,36.60
2023-04-04T11:04:51.570Z,36.47
2023-04-04T11:08:17.143Z,35.60
2023-04-04T11:11:22.513Z,36.80
2023-04-04T11:14:32.714Z,35.70
2023-04-04T11:17:50.540Z,35.46
2023-04-04T11:20:54.477Z,35.94
2023-04-04T11:24:04.882Z,34.37
2023-04-04T11:27:07.999Z,34.15
2023-04-04T11:30:14.594Z,35.86
2023-04-04T11:33:28.705Z,35.62
2023-04-04T11:36:37.198Z,36.34
2023-04-04T11:39:50.822Z,36.48
2023-04-04T11:42:56.169Z,36.69
2023-04-04T11:46:08.109Z,37.85
2023-04-04T11:49:12.069Z,37.57
2023-04-04T11:52:17.788Z,39.62
2023-04-04T11:55:22.373Z,39.48
2023-04-04T11:58:26.742Z,41.19
2023-04-04T12:01:30.157Z,39.86
2023-04-04T12:04:35.847Z,40.13
2023-04-04T12:07:40.314Z,40.02
2023-04-04T12:10:44.461Z,40.85
2023-04-04T12:13:47.354Z,40.62
2023-04-04T12:16:52.411Z,41.84
2023-04-04T12:19:55.059Z,41.23
2023-04-04T12:22:57.808Z,40.66
2023-04-04T12:26:01.991Z,41.11
2023-04-04T12:29:05.618Z,42.07
2023-04-04T12:32:10.828Z,41.15
2023-04-04T12:35:13.549Z,41.77
2023-04-04T12:38:17.015Z,41.67
2023-04-04T12:41:20.013Z,40.96
2023-04-04T12:44:30.980Z,41.24
2023-04-04T12:47:34.212Z,41.04
2023-04-04T12:50:53.293Z,41.60
2023-04-04T12:53:57.053Z,40.75
2023-04-04T12:57:04.397Z,41.06
2023-04-04T13:00:09.029Z,40.74
2023-04-04T13:03:14.594Z,41.55
2023-04-04T13:06:17.633Z,40.92
2023-04-04T13:09:22.977Z,40.99
2023-04-04T13:12:26.152Z,40.88
2023-04-04T13:15:49.379Z,40.47
2023-04-04T13:18:52.210Z,40.20
2023-04-04T13:21:54.979Z,40.79
2023-04-04T13:24:57.700Z,40.69
2023-04-04T13:28:01.016Z,39.54
2023-04-04T13:31:05.018Z,40.03
2023-04-04T13:34:07.614Z,40.54
2023-04-04T13:37:10.089Z,41.58
2023-04-04T13:40:14.385Z,40.69
2023-04-04T13:43:16.987Z,41.50
2023-04-04T13:46:19.549Z,41.30
2023-04-04T13:49:22.079Z,41.65
2023-04-04T13:52:24.800Z,41.69
2023-04-04T13:55:27.856Z,41.24
2023-04-04T13:58:30.611Z,41.21
2023-04-04T14:01:33.733Z,41.64
2023-04-04T14:04:36.593Z,41.49
2023-04-04T14:07:39.263Z,40.61
2023-04-04T14:10:41.867Z,41.91
2023-04-04T14:13:44.373Z,42.73
2023-04-04T14:16:47.434Z,42.41
2023-04-04T14:19:50.053Z,41.92
2023-04-04T14:22:52.648Z,42.14
2023-04-04T14:25:55.490Z,41.89
2023-04-04T14:28:58.257Z,42.22
2023-04-04T14:32:01.409Z,42.24
2023-04-04T14:35:04.169Z,42.50
2023-04-04T14:38:06.939Z,41.81
2023-04-04T14:41:09.682Z,42.34
2023-04-04T14:44:12.401Z,42.73
2023-04-04T14:47:15.706Z,41.97
2023-04-04T14:50:19.383Z,42.25
2023-04-04T14:53:22.993Z,42.66
2023-04-04T14:56:26.202Z,43.33
2023-04-04T14:59:28.913Z,43.06
2023-04-04T15:02:32.283Z,42.71
2023-04-04T15:05:34.964Z,42.78
2023-04-04T15:08:37.869Z,43.65
2023-04-04T15:11:40.349Z,43.35
2023-04-04T15:14:42.881Z,43.48
2023-04-04T15:17:45.271Z,44.48
2023-04-04T15:20:47.795Z,43.07
2023-04-04T15:23:50.450Z,42.39
2023-04-04T15:26:53.963Z,42.11
2023-04-04T15:29:57.213Z,42.83
2023-04-04T15:33:00.368Z,42.57
2023-04-04T15:36:02.966Z,42.43
2023-04-04T15:39:05.605Z,42.32
2023-04-04T15:42:07.982Z,42.69
2023-04-04T15:45:11.212Z,42.89
2023-04-04T15:48:13.630Z,42.55
2023-04-04T15:51:16.773Z,42.29
2023-04-04T15:54:19.310Z,43.52
2023-04-04T15:57:22.005Z,42.73
2023-04-04T16:00:28.330Z,42.91
2023-04-04T16:03:31.621Z,42.80
2023-04-04T16:06:34.147Z,43.52
2023-04-04T16:09:37.181Z,42.96
2023-04-04T16:12:39.665Z,42.47
2023-04-04T16:15:42.814Z,41.93
2023-04-04T16:18:45.493Z,42.56
2023-04-04T16:21:49.527Z,43.19
2023-04-04T16:24:52.318Z,44.04
2023-04-04T16:27:54.975Z,44.46
2023-04-04T16:30:59.494Z,45.14
2023-04-04T16:34:02.452Z,45.53
2023-04-04T16:37:05.721Z,46.28
2023-04-04T16:40:09.095Z,46.06
2023-04-04T16:43:12.315Z,46.74
2023-04-04T16:46:14.993Z,46.78
2023-04-04T16:49:17.632Z,47.51
2023-04-04T16:52:20.338Z,47.62
2023-04-04T16:55:26.220Z,48.11
2023-04-04T16:58:29.022Z,49.22
2023-04-04T17:01:31.931Z,48.80
2023-04-04T17:04:34.976Z,48.97
2023-04-04T17:07:37.392Z,48.51
2023-04-04T17:10:42.908Z,49.21
2023-04-04T17:13:46.127Z,49.28
2023-04-04T17:16:49.080Z,48.26
2023-04-04T17:19:51.993Z,48.47
2023-04-04T17:22:54.694Z,48.12
2023-04-04T17:25:57.462Z,48.39
2023-04-04T17:29:00.424Z,48.36
2023-04-04T17:32:03.810Z,48.38
2023-04-04T17:35:07.203Z,48.90
2023-04-04T17:38:10.123Z,49.27
2023-04-04T17:41:13.833Z,49.46
2023-04-04T17:44:17.292Z,49.86
2023-04-04T17:47:20.383Z,49.42
2023-04-04T17:50:24.930Z,49.67
2023-04-04T17:53:29.058Z,49.53
2023-04-04T17:56:31.588Z,49.31
2023-04-04T17:59:34.454Z,49.11
2023-04-04T18:02:37.244Z,49.00
2023-04-04T18:05:41.170Z,48.98
2023-04-04T18:08:43.806Z,48.89
2023-04-04T18:11:47.184Z,49.27
2023-04-04T18:14:49.815Z,49.93
2023-04-04T18:17:53.398Z,50.32
2023-04-04T18:20:57.012Z,50.67
2023-04-04T18:24:00.144Z,50.98
2023-04-04T18:27:03.246Z,51.91
2023-04-04T18:30:07.265Z,51.86
2023-04-04T18:33:10.923Z,52.72
2023-04-04T18:36:14.245Z,53.35
2023-04-04T18:39:18.595Z,53.33
2023-04-04T18:42:21.404Z,53.60
2023-04-04T18:45:33.587Z,53.87
2023-04-04T18:48:41.765Z,53.91
2023-04-04T18:51:46.188Z,54.52
2023-04-04T18:54:49.052Z,54.95
2023-04-04T18:57:51.950Z,54.72
2023-04-04T19:00:56.093Z,54.72
2023-04-04T19:03:59.476Z,54.31
2023-04-04T19:07:06.837Z,53.46
2023-04-04T19:10:09.909Z,53.60
2023-04-04T19:13:16.056Z,53.83
2023-04-04T19:16:19.029Z,54.49
2023-04-04T19:19:22.177Z,54.57
2023-04-04T19:22:25.245Z,54.90
2023-04-04T19:25:28.296Z,55.20
2023-04-04T19:28:31.693Z,55.13
2023-04-04T19:31:34.767Z,55.71
2023-04-04T19:34:37.476Z,56.26
2023-04-04T19:37:40.427Z,56.54
2023-04-04T19:40:49.064Z,57.48
2023-04-04T19:43:51.827Z,56.72
2023-04-04T19:46:54.595Z,56.56
2023-04-04T19:49:57.483Z,56.95
2023-04-04T19:53:00.376Z,57.07
2023-04-04T19:56:14.214Z,56.84
2023-04-04T19:59:41.981Z,56.89
2023-04-04T20:02:53.121Z,56.72
2023-04-04T20:05:59.706Z,57.31
2023-04-04T20:09:10.162Z,57.24
2023-04-04T20:12:14.395Z,57.14
2023-04-04T20:15:52.244Z,57.09
2023-04-04T20:18:54.881Z,57.00
2023-04-04T20:21:57.634Z,57.16
2023-04-04T20:25:01.789Z,56.92
2023-04-04T20:28:06.368Z,57.23
2023-04-04T20:31:12.265Z,57.00
2023-04-04T20:34:41.855Z,56.90
2023-04-04T20:37:45.414Z,56.97
2023-04-04T20:40:48.361Z,57.30
2023-04-04T20:43:55.930Z,57.46
2023-04-04T20:46:58.929Z,58.16
2023-04-04T20:50:01.343Z,58.13
2023-04-04T20:53:05.319Z,58.25
2023-04-04T20:56:11.965Z,58.48
2023-04-04T20:59:31.680Z,58.15
2023-04-04T21:02:34.486Z,58.12
2023-04-04T21:05:39.842Z,57.92
2023-04-04T21:08:50.668Z,57.85
2023-04-04T21:11:53.701Z,57.88
2023-04-04T21:14:56.214Z,58.63
2023-04-04T21:18:02.551Z,59.00
2023-04-04T21:21:10.095Z,58.79
2023-04-04T21:24:14.247Z,58.92
2023-04-04T21:27:34.848Z,59.45
2023-04-04T21:30:44.252Z,59.91
2023-04-04T21:33:49.245Z,59.23
2023-04-04T21:36:57.612Z,59.36
2023-04-04T21:40:00.624Z,59.90
2023-04-04T21:43:03.505Z,59.82
2023-04-04T21:46:06.146Z,59.76
2023-04-04T21:49:09.568Z,59.73
2023-04-04T21:52:12.248Z,60.42
2023-04-04T21:55:15.038Z,59.82
2023-04-04T21:58:17.521Z,60.28
2023-04-04T22:01:20.580Z,60.63
2023-04-04T22:04:23.588Z,60.23
2023-04-04T22:07:26.579Z,60.45
2023-04-04T22:10:29.544Z,60.36
2023-04-04T22:13:35.269Z,60.86
2023-04-04T22:16:39.851Z,61.34
2023-04-04T22:19:43.184Z,60.89
2023-04-04T22:22:45.968Z,61.03
2023-04-04T22:25:48.792Z,61.04
2023-04-04T22:28:51.684Z,61.02
2023-04-04T22:31:54.168Z,61.31
2023-04-04T22:34:57.626Z,61.63
2023-04-04T22:38:10.129Z,61.94
2023-04-04T22:41:12.760Z,61.63
2023-04-04T22:44:17.936Z,61.55
2023-04-04T22:47:20.421Z,61.65
2023-04-04T22:50:24.345Z,61.92
2023-04-04T22:53:26.809Z,61.56
2023-04-04T22:56:29.575Z,61.95
2023-04-04T22:59:32.510Z,61.04
2023-04-04T23:02:35.576Z,61.18
2023-04-04T23:05:38.418Z,61.11
2023-04-04T23:08:41.233Z,60.93
2023-04-04T23:11:44.671Z,61.04
2023-04-04T23:14:47.795Z,60.79
2023-04-04T23:17:50.910Z,60.30
2023-04-04T23:20:53.938Z,60.28
2023-04-04T23:23:57.631Z,60.17
2023-04-04T23:27:01.155Z,60.21
2023-04-04T23:30:04.886Z,60.07
2023-04-04T23:33:07.950Z,60.10
2023-04-04T23:36:11.043Z,59.95
2023-04-04T23:39:15.096Z,59.89
2023-04-04T23:42:17.994Z,60.16
2023-04-04T23:45:21.512Z,60.45
2023-04-04T23:48:23.999Z,60.97
2023-04-04T23:51:30.566Z,60.51
2023-04-04T23:54:33.122Z,60.46
2023-04-04T23:57:36.711Z,60.07
